createdAt,value
2017-08-08T00:02:59.703Z,73.30
2017-08-08T00:08:27.875Z,73.50
2017-08-08T00:13:57.027Z,73.40
2017-08-08T00:19:25.964Z,73.70
2017-08-08T00:24:54.154Z,73.60
2017-08-08T00:30:23.099Z,74.60
2017-08-08T00:35:51.293Z,74.00
2017-08-08T00:41:19.590Z,74.30
2017-08-08T00:46:47.928Z,74.20
2017-08-08T00:52:16.116Z,74.50
2017-08-08T00:57:44.267Z,74.60
2017-08-08T01:03:12.436Z,74.70
2017-08-08T01:08:42.590Z,75.00
2017-08-08T01:14:11.532Z,75.10
2017-08-08T01:19:39.688Z,75.20
2017-08-08T01:25:07.854Z,75.20
2017-08-08T01:30:36.209Z,75.40
2017-08-08T01:36:04.448Z,75.40
2017-08-08T01:41:32.632Z,75.50
2017-08-08T01:47:00.807Z,75.30
2017-08-08T01:52:29.114Z,75.60
2017-08-08T01:57:57.278Z,75.60
2017-08-08T02:03:25.449Z,75.70
2017-08-08T02:08:53.595Z,75.70
2017-08-08T02:14:21.784Z,75.70
2017-08-08T02:19:49.933Z,75.90
2017-08-08T02:25:18.097Z,76.00
2017-08-08T02:30:46.295Z,76.20
2017-08-08T02:36:15.233Z,76.20
2017-08-08T02:41:44.332Z,76.20
2017-08-08T02:47:12.492Z,76.20
2017-08-08T02:52:40.656Z,76.50
2017-08-08T02:58:09.841Z,76.60
2017-08-08T03:03:38.016Z,76.60
2017-08-08T03:09:06.940Z,76.90
2017-08-08T03:14:35.099Z,76.90
2017-08-08T03:20:03.398Z,77.10
2017-08-08T03:25:32.578Z,77.20
2017-08-08T03:31:01.217Z,77.20
2017-08-08T03:36:30.331Z,77.00
2017-08-08T03:41:58.562Z,77.10
2017-08-08T03:47:26.713Z,77.20
2017-08-08T03:52:54.881Z,77.40
2017-08-08T03:58:23.173Z,77.50
2017-08-08T04:03:51.374Z,77.50
2017-08-08T04:09:19.568Z,77.50
2017-08-08T04:14:48.508Z,78.50
2017-08-08T04:20:16.685Z,77.70
2017-08-08T04:25:44.837Z,77.80
2017-08-08T04:31:13.369Z,77.80
2017-08-08T04:36:48.403Z,77.90
2017-08-08T04:42:16.584Z,77.80
2017-08-08T04:47:44.759Z,77.80
2017-08-08T04:53:12.943Z,77.70
2017-08-08T04:58:41.115Z,77.60
2017-08-08T05:04:09.657Z,77.60
2017-08-08T05:09:37.830Z,77.30
2017-08-08T05:15:06.001Z,77.20
2017-08-08T05:20:34.148Z,77.10
2017-08-08T05:26:02.337Z,76.80
2017-08-08T05:31:30.532Z,76.70
2017-08-08T05:36:59.456Z,76.60
2017-08-08T05:42:27.607Z,76.20
2017-08-08T05:47:55.801Z,76.00
2017-08-08T05:53:23.950Z,75.90
2017-08-08T05:58:52.105Z,75.60
2017-08-08T06:04:20.252Z,75.40
2017-08-08T06:09:48.445Z,75.30
2017-08-08T06:15:16.613Z,75.10
2017-08-08T06:20:45.527Z,74.80
2017-08-08T06:26:13.717Z,74.80
2017-08-08T06:31:41.891Z,74.50
2017-08-08T06:37:10.037Z,74.40
2017-08-08T06:42:38.195Z,74.00
2017-08-08T06:48:06.359Z,74.00
2017-08-08T06:53:34.513Z,73.40
2017-08-08T06:59:02.684Z,73.30
2017-08-08T07:04:30.854Z,72.70
2017-08-08T07:09:59.784Z,71.70
2017-08-08T07:15:27.958Z,71.60
2017-08-08T07:20:56.117Z,71.30
2017-08-08T07:26:24.274Z,71.40
2017-08-08T07:31:52.450Z,70.20
2017-08-08T07:37:20.587Z,70.00
2017-08-08T07:42:49.671Z,70.10
2017-08-08T07:48:17.832Z,68.60
2017-08-08T07:53:45.988Z,68.30
2017-08-08T07:59:14.159Z,67.70
2017-08-08T08:04:42.298Z,67.30
2017-08-08T08:10:10.449Z,66.90
2017-08-08T08:15:38.591Z,65.40
2017-08-08T08:21:06.756Z,64.50
2017-08-08T08:26:35.020Z,64.10
2017-08-08T08:32:03.168Z,63.10
2017-08-08T08:37:31.332Z,62.20
2017-08-08T08:42:59.478Z,61.50
2017-08-08T08:48:27.633Z,62.20
2017-08-08T08:53:57.406Z,60.40
2017-08-08T08:59:26.347Z,58.80
2017-08-08T09:04:54.576Z,58.70
2017-08-08T09:10:23.520Z,56.60
2017-08-08T09:15:51.703Z,57.00
2017-08-08T09:21:19.855Z,55.00
2017-08-08T09:26:48.028Z,53.60
2017-08-08T09:32:16.247Z,53.30
2017-08-08T09:37:45.485Z,53.30
2017-08-08T09:43:14.590Z,53.20
2017-08-08T09:48:42.752Z,51.20
2017-08-08T09:54:10.899Z,50.90
2017-08-08T09:59:39.832Z,49.00
2017-08-08T10:05:07.971Z,48.80
2017-08-08T10:10:36.270Z,49.70
2017-08-08T10:16:04.574Z,50.20
2017-08-08T10:21:33.799Z,51.00
2017-08-08T10:27:02.033Z,50.40
2017-08-08T10:32:30.205Z,50.30
2017-08-08T10:37:58.498Z,49.30
2017-08-08T10:43:26.694Z,50.90
2017-08-08T10:48:54.856Z,49.90
2017-08-08T10:54:23.781Z,49.40
2017-08-08T10:59:51.918Z,49.40
2017-08-08T11:05:20.217Z,48.60
2017-08-08T11:10:48.424Z,47.60
2017-08-08T11:16:18.340Z,47.30
2017-08-08T11:21:46.490Z,49.00
2017-08-08T11:27:14.640Z,48.10
2017-08-08T11:32:42.800Z,47.20
2017-08-08T11:38:10.957Z,46.60
2017-08-08T11:43:41.912Z,45.70
2017-08-08T11:49:11.134Z,45.60
2017-08-08T11:54:39.519Z,45.30
2017-08-08T12:00:08.260Z,46.20
2017-08-08T12:05:37.228Z,44.50
2017-08-08T12:11:06.344Z,44.90
2017-08-08T12:16:34.602Z,44.90
2017-08-08T12:22:03.545Z,45.90
2017-08-08T12:27:31.827Z,45.90
2017-08-08T12:33:01.194Z,46.50
2017-08-08T12:38:32.547Z,45.40
2017-08-08T12:44:00.865Z,45.90
2017-08-08T12:49:29.529Z,46.00
2017-08-08T12:54:57.942Z,48.00
2017-08-08T13:00:26.754Z,48.80
2017-08-08T13:05:55.848Z,49.50
2017-08-08T13:11:24.028Z,49.50
2017-08-08T13:16:52.202Z,49.00
2017-08-08T13:22:20.419Z,49.10
2017-08-08T13:27:49.296Z,48.80
2017-08-08T13:33:18.059Z,48.00
2017-08-08T13:38:46.231Z,48.20
2017-08-08T13:44:14.376Z,48.90
2017-08-08T13:49:43.918Z,50.10
2017-08-08T13:55:12.864Z,51.60
2017-08-08T14:00:41.010Z,51.60
2017-08-08T14:06:09.168Z,52.90
2017-08-08T14:11:37.302Z,52.50
2017-08-08T14:17:05.466Z,52.40
2017-08-08T14:22:33.654Z,52.40
2017-08-08T14:28:01.838Z,52.00
2017-08-08T14:33:30.759Z,52.90
2017-08-08T14:38:58.913Z,52.80
2017-08-08T14:44:27.100Z,52.50
2017-08-08T14:49:55.254Z,52.40
2017-08-08T14:55:23.424Z,53.40
2017-08-08T15:00:51.580Z,56.50
2017-08-08T15:06:20.699Z,58.80
2017-08-08T15:11:48.886Z,58.80
2017-08-08T15:17:17.044Z,59.80
2017-08-08T15:22:45.208Z,61.20
2017-08-08T15:28:13.364Z,61.90
2017-08-08T15:33:41.516Z,61.30
2017-08-08T15:39:09.668Z,61.50
2017-08-08T15:44:37.843Z,59.10
2017-08-08T15:50:06.047Z,59.00
2017-08-08T15:55:34.238Z,57.70
2017-08-08T16:01:02.396Z,56.70
2017-08-08T16:06:30.591Z,56.50
2017-08-08T16:11:58.737Z,57.20
2017-08-08T16:17:26.905Z,56.30
2017-08-08T16:22:55.086Z,56.30
2017-08-08T16:28:23.229Z,56.20
2017-08-08T16:33:51.387Z,57.40
2017-08-08T16:39:19.564Z,59.00
2017-08-08T16:44:48.529Z,62.00
2017-08-08T16:50:17.509Z,63.10
2017-08-08T16:55:46.179Z,63.10
2017-08-08T17:01:15.108Z,65.10
2017-08-08T17:06:46.479Z,65.10
2017-08-08T17:12:14.637Z,66.90
2017-08-08T17:17:42.800Z,66.70
2017-08-08T17:23:12.725Z,68.00
2017-08-08T17:28:40.878Z,67.20
2017-08-08T17:34:09.036Z,68.10
2017-08-08T17:39:38.330Z,68.20
2017-08-08T17:45:06.477Z,68.50
2017-08-08T17:50:35.583Z,69.30
2017-08-08T17:56:05.369Z,69.70
2017-08-08T18:01:33.525Z,70.60
2017-08-08T18:07:02.513Z,71.50
2017-08-08T18:12:30.681Z,72.10
2017-08-08T18:17:58.890Z,72.60
2017-08-08T18:23:27.817Z,73.30
2017-08-08T18:28:55.989Z,73.30
2017-08-08T18:34:24.157Z,73.60
2017-08-08T18:39:52.345Z,73.80
2017-08-08T18:45:21.543Z,73.90
2017-08-08T18:50:49.781Z,74.10
2017-08-08T18:56:17.948Z,73.70
2017-08-08T19:01:46.128Z,73.70
2017-08-08T19:07:14.273Z,73.30
2017-08-08T19:12:42.441Z,72.80
2017-08-08T19:18:10.587Z,72.20
2017-08-08T19:23:38.753Z,71.90
2017-08-08T19:29:06.911Z,71.20
2017-08-08T19:34:35.065Z,71.20
2017-08-08T19:40:03.221Z,72.90
2017-08-08T19:45:31.374Z,77.80
2017-08-08T19:50:59.525Z,79.30
2017-08-08T19:56:28.452Z,79.90
2017-08-08T20:01:56.616Z,79.80
2017-08-08T20:07:24.764Z,79.90
2017-08-08T20:12:52.941Z,79.80
2017-08-08T20:18:22.725Z,80.00
2017-08-08T20:23:51.215Z,80.00
2017-08-08T20:29:19.540Z,80.20
2017-08-08T20:34:47.778Z,80.50
2017-08-08T20:40:15.932Z,80.60
2017-08-08T20:45:44.089Z,80.70
2017-08-08T20:51:12.231Z,80.60
2017-08-08T20:56:41.192Z,80.30
2017-08-08T21:02:10.114Z,79.80
2017-08-08T21:07:38.323Z,79.60
2017-08-08T21:13:06.562Z,80.10
2017-08-08T21:18:34.712Z,80.10
2017-08-08T21:24:02.941Z,80.20
2017-08-08T21:29:31.076Z,80.30
2017-08-08T21:34:59.211Z,80.50
2017-08-08T21:40:27.352Z,80.50
2017-08-08T21:45:55.502Z,80.60
2017-08-08T21:51:23.655Z,80.60
2017-08-08T21:56:51.820Z,80.90
2017-08-08T22:02:19.987Z,81.00
2017-08-08T22:07:48.161Z,81.20
2017-08-08T22:13:17.074Z,81.60
2017-08-08T22:18:45.258Z,81.60
2017-08-08T22:24:13.773Z,81.50
2017-08-08T22:29:42.671Z,82.20
2017-08-08T22:35:10.822Z,81.80
2017-08-08T22:40:38.985Z,81.80
2017-08-08T22:46:07.149Z,82.10
2017-08-08T22:51:35.409Z,82.50
2017-08-08T22:57:03.542Z,82.30
2017-08-08T23:02:31.689Z,82.30
2017-08-08T23:07:59.833Z,82.30
2017-08-08T23:13:28.070Z,81.90
2017-08-08T23:18:56.225Z,82.00
2017-08-08T23:24:24.422Z,81.80
2017-08-08T23:29:53.352Z,82.40
2017-08-08T23:35:21.486Z,82.30
2017-08-08T23:40:49.635Z,82.50
2017-08-08T23:46:17.788Z,82.50
2017-08-08T23:51:45.946Z,82.40
2017-08-08T23:57:14.083Z,82.70
